Time;durP1;ratioP1;P1;durP2;ratioP2;P2;SDS_P1;SDS_P2;PMS_P1;PMS_P2;Temp;Humidity;BMP_temperature;BMP_pressure;BME280_temperature;BME280_humidity;BME280_pressure;Samples;Min_cycle;Max_cycle;Signal;HPM_P1;HPM_P2
2023/12/19 00:00:42;;;;;;;24.77;11.90;;;;;;;7.26;100.00;102278.69;7391956;19;20354;-78
2023/12/19 00:03:13;;;;;;;26.10;11.65;;;;;;;7.25;100.00;102287.69;7390238;19;19926;-77
2023/12/19 00:05:44;;;;;;;25.20;12.57;;;;;;;7.25;100.00;102260.91;7392227;19;19919;-78
2023/12/19 00:08:13;;;;;;;24.90;12.57;;;;;;;7.25;100.00;102260.91;7389672;19;20264;-78
2023/12/19 00:10:42;;;;;;;21.10;10.73;;;;;;;7.25;100.00;102255.53;7389520;19;20283;-77
2023/12/19 00:13:11;;;;;;;27.67;13.50;;;;;;;7.26;100.00;102259.06;7391644;19;19930;-77
2023/12/19 00:15:40;;;;;;;23.98;12.02;;;;;;;7.25;100.00;102242.13;7394077;19;19948;-77
2023/12/19 00:18:08;;;;;;;26.23;11.60;;;;;;;7.26;100.00;102235.81;7397531;19;19930;-77
2023/12/19 00:20:40;;;;;;;24.20;12.05;;;;;;;7.27;100.00;102231.31;7389890;19;19926;-77
2023/12/19 00:23:08;;;;;;;22.67;10.85;;;;;;;7.27;100.00;102229.47;7390260;19;19923;-78
2023/12/19 00:25:37;;;;;;;22.48;10.73;;;;;;;7.27;100.00;102242.03;7390588;19;20389;-78
2023/12/19 00:28:06;;;;;;;22.17;11.32;;;;;;;7.26;100.00;102235.81;7388918;19;19922;-77
2023/12/19 00:30:34;;;;;;;24.92;11.00;;;;;;;7.27;100.00;102217.91;7388677;19;19954;-77
2023/12/19 00:33:03;;;;;;;27.73;12.43;;;;;;;7.28;100.00;102231.19;7388472;19;19919;-75
2023/12/19 00:35:31;;;;;;;23.63;10.27;;;;;;;7.30;100.00;102223.00;7391396;19;19939;-75
2023/12/19 00:38:05;;;;;;;21.55;10.38;;;;;;;7.30;100.00;102231.91;7390968;19;19915;-75
2023/12/19 00:40:33;;;;;;;24.25;11.63;;;;;;;7.33;100.00;102229.97;7390585;19;20289;-75
2023/12/19 00:43:02;;;;;;;23.20;10.63;;;;;;;7.35;100.00;102228.84;7388299;19;19965;-75
2023/12/19 00:45:30;;;;;;;25.80;10.43;;;;;;;7.36;100.00;102229.72;7394637;19;20547;-78
2023/12/19 00:48:00;;;;;;;22.70;9.75;;;;;;;7.38;100.00;102235.81;7397057;19;20417;-78
2023/12/19 00:50:28;;;;;;;21.88;10.82;;;;;;;7.38;100.00;102225.91;7392738;19;19926;-78
2023/12/19 00:52:57;;;;;;;25.20;11.38;;;;;;;7.41;100.00;102216.78;7395693;19;19932;-77
2023/12/19 00:55:28;;;;;;;23.90;11.48;;;;;;;7.42;100.00;102229.22;7394513;19;19929;-78
2023/12/19 00:57:56;;;;;;;22.65;9.63;;;;;;;7.41;100.00;102223.00;7395943;19;19952;-77
2023/12/19 01:00:25;;;;;;;22.17;9.93;;;;;;;7.42;100.00;102213.16;7402226;19;19926;-77
2023/12/19 01:02:53;;;;;;;23.23;10.98;;;;;;;7.42;100.00;102197.06;7391245;19;19926;-78
2023/12/19 01:05:22;;;;;;;21.20;10.43;;;;;;;7.41;100.00;102195.34;7390643;19;19930;-75
2023/12/19 01:07:50;;;;;;;22.98;10.85;;;;;;;7.42;100.00;102197.88;7392581;19;19922;-78
2023/12/19 01:10:20;;;;;;;22.27;9.65;;;;;;;7.43;100.00;102179.97;7394406;19;20322;-78
2023/12/19 01:12:51;;;;;;;19.45;10.73;;;;;;;7.43;100.00;102182.66;7394662;19;20254;-78
2023/12/19 01:15:20;;;;;;;18.08;8.93;;;;;;;7.42;100.00;102184.47;7395977;19;19934;-77
2023/12/19 01:17:49;;;;;;;22.17;9.95;;;;;;;7.43;100.00;102177.28;7394086;19;19922;-78
2023/12/19 01:20:17;;;;;;;18.38;9.25;;;;;;;7.44;100.00;102200.44;7395940;19;19955;-78
2023/12/19 01:22:46;;;;;;;16.75;9.38;;;;;;;7.44;100.00;102185.22;7395780;19;19919;-75
2023/12/19 01:25:14;;;;;;;23.38;9.77;;;;;;;7.45;100.00;102215.56;7394400;19;19985;-77
2023/12/19 01:27:43;;;;;;;15.45;7.75;;;;;;;7.45;100.00;102178.03;7395052;19;19922;-77
2023/12/19 01:30:15;;;;;;;14.20;7.90;;;;;;;7.46;100.00;102185.97;7396584;19;20349;-77
2023/12/19 01:33:03;;;;;;;14.13;7.60;;;;;;;7.44;100.00;102179.00;7391723;19;20336;-77
2023/12/19 01:35:32;;;;;;;13.40;6.50;;;;;;;7.46;100.00;102182.44;7393147;19;19957;-78
2023/12/19 01:38:00;;;;;;;14.38;7.15;;;;;;;7.46;100.00;102187.78;7395973;19;19922;-77
2023/12/19 01:40:28;;;;;;;13.52;7.32;;;;;;;7.46;100.00;102169.88;7393557;19;19928;-77
2023/12/19 01:43:21;;;;;;;17.58;8.52;;;;;;;7.46;100.00;102169.88;7392961;19;19939;-78
2023/12/19 01:45:52;;;;;;;16.05;8.60;;;;;;;7.46;100.00;102160.97;7393296;19;19926;-77
2023/12/19 01:48:22;;;;;;;15.95;7.88;;;;;;;7.47;100.00;102181.44;7395250;19;19926;-77
2023/12/19 01:50:51;;;;;;;15.73;7.95;;;;;;;7.47;100.00;102168.03;7392937;19;20409;-77
2023/12/19 01:53:40;;;;;;;12.43;6.93;;;;;;;7.47;100.00;102146.56;7392102;19;19925;-77
2023/12/19 01:56:10;;;;;;;14.55;7.28;;;;;;;7.48;100.00;102164.38;7393439;19;20339;-77
2023/12/19 01:58:39;;;;;;;13.30;7.00;;;;;;;7.48;100.00;102161.69;7394759;19;20496;-77
2023/12/19 02:01:11;;;;;;;14.80;7.43;;;;;;;7.49;100.00;102166.09;7394251;19;19926;-77
2023/12/19 02:03:41;;;;;;;12.57;6.60;;;;;;;7.48;100.00;102164.38;7392163;19;19927;-77
2023/12/19 02:06:11;;;;;;;13.38;6.55;;;;;;;7.48;100.00;102153.66;7394294;19;19914;-77
2023/12/19 02:08:41;;;;;;;11.75;6.45;;;;;;;7.48;100.00;102156.31;7395964;19;19922;-77
2023/12/19 02:11:10;;;;;;;13.55;6.82;;;;;;;7.48;100.00;102145.59;7392141;19;19914;-77
2023/12/19 02:13:39;;;;;;;13.07;7.07;;;;;;;7.48;100.00;102156.31;7392940;19;20575;-77
2023/12/19 02:16:11;;;;;;;13.82;6.68;;;;;;;7.50;100.00;102149.03;7392815;19;19922;-77
2023/12/19 02:18:39;;;;;;;14.98;8.30;;;;;;;7.50;100.00;102152.56;7392201;19;20277;-77
2023/12/19 02:21:28;;;;;;;12.23;6.85;;;;;;;7.50;100.00;102157.06;7389568;19;19945;-77
2023/12/19 02:24:20;;;;;;;12.05;6.50;;;;;;;7.52;100.00;102139.00;7390393;19;19922;-77
2023/12/19 02:26:48;;;;;;;14.05;6.57;;;;;;;7.51;100.00;102154.25;7393814;19;19927;-77
2023/12/19 02:29:37;;;;;;;11.73;6.13;;;;;;;7.54;100.00;102147.78;7389679;19;19927;-77
2023/12/19 02:32:06;;;;;;;10.43;5.80;;;;;;;7.54;100.00;102140.59;7396032;19;19962;-77
2023/12/19 02:34:35;;;;;;;9.95;5.90;;;;;;;7.55;100.00;102136.09;7400539;19;19926;-77
2023/12/19 02:37:03;;;;;;;12.35;6.90;;;;;;;7.56;100.00;102127.91;7394833;19;19922;-78
2023/12/19 02:39:39;;;;;;;13.55;7.65;;;;;;;7.57;100.00;102118.03;7392747;19;20018;-77
2023/12/19 02:42:08;;;;;;;9.90;5.70;;;;;;;7.58;100.00;102114.38;7391518;19;19918;-77
2023/12/19 02:44:36;;;;;;;9.80;5.55;;;;;;;7.58;100.00;102112.56;7393535;19;20360;-77
2023/12/19 02:47:05;;;;;;;9.18;4.53;;;;;;;7.60;100.00;102112.41;7391588;19;20452;-77
2023/12/19 02:49:34;;;;;;;10.32;5.70;;;;;;;7.61;100.00;102098.03;7391857;19;20299;-77
2023/12/19 02:52:00;;;;;;;8.27;4.55;;;;;;;7.61;100.00;102116.78;7392017;19;19923;-77
2023/12/19 02:54:28;;;;;;;11.43;5.43;;;;;;;7.60;100.00;102085.59;7394382;19;19943;-77
2023/12/19 02:56:59;;;;;;;12.07;6.40;;;;;;;7.55;100.00;102085.16;7393861;19;19923;-77
2023/12/19 02:59:28;;;;;;;9.73;5.72;;;;;;;7.50;100.00;102098.06;7387296;19;19951;-77
2023/12/19 03:01:56;;;;;;;11.88;5.97;;;;;;;7.47;100.00;102096.47;7392330;19;20191;-77
2023/12/19 03:04:25;;;;;;;9.18;5.53;;;;;;;7.44;100.00;102096.75;7392176;19;19922;-77
2023/12/19 03:06:53;;;;;;;10.30;5.80;;;;;;;7.41;100.00;102088.13;7388758;19;19923;-77
2023/12/19 03:09:22;;;;;;;11.00;5.55;;;;;;;7.39;100.00;102068.59;7393753;19;19956;-77
2023/12/19 03:12:04;;;;;;;9.77;5.43;;;;;;;7.34;100.00;102073.50;7391662;19;19925;-77
2023/12/19 03:14:33;;;;;;;9.20;5.25;;;;;;;7.34;100.00;102055.59;7390833;19;19919;-77
2023/12/19 03:17:03;;;;;;;8.57;4.80;;;;;;;7.32;100.00;102054.88;7398079;19;19928;-77
2023/12/19 03:19:32;;;;;;;8.65;5.03;;;;;;;7.32;100.00;102043.31;7393676;19;19953;-78
2023/12/19 03:22:01;;;;;;;9.70;5.38;;;;;;;7.29;100.00;102045.25;7388767;19;19933;-77
2023/12/19 03:24:30;;;;;;;7.38;4.38;;;;;;;7.27;100.00;102033.81;7390935;19;19926;-77
2023/12/19 03:26:58;;;;;;;8.10;4.57;;;;;;;7.24;100.00;102038.59;7391826;19;19973;-77
2023/12/19 03:29:32;;;;;;;7.95;4.45;;;;;;;7.22;100.00;102052.09;7392842;19;19919;-77
2023/12/19 03:32:00;;;;;;;7.60;4.60;;;;;;;7.20;100.00;102045.19;7393058;19;19918;-78
2023/12/19 03:34:29;;;;;;;8.68;4.88;;;;;;;7.19;100.00;102038.97;7392726;19;19919;-78
2023/12/19 03:36:58;;;;;;;8.02;4.72;;;;;;;7.18;100.00;102047.97;7391237;19;19923;-77
2023/12/19 03:39:26;;;;;;;12.43;7.18;;;;;;;7.17;100.00;102043.59;7392305;19;20254;-77
2023/12/19 03:41:55;;;;;;;6.57;4.38;;;;;;;7.16;100.00;102033.00;7390536;19;19950;-77
2023/12/19 03:44:23;;;;;;;6.70;4.47;;;;;;;7.15;100.00;102029.47;7391661;19;19954;-77
2023/12/19 03:46:55;;;;;;;5.90;4.22;;;;;;;7.13;100.00;102015.34;7390515;19;19948;-77
2023/12/19 03:49:23;;;;;;;8.45;4.75;;;;;;;7.10;100.00;102037.03;7391507;19;19947;-77
2023/12/19 03:51:52;;;;;;;8.13;5.03;;;;;;;7.08;100.00;102016.69;7391619;19;19915;-77
2023/12/19 03:54:20;;;;;;;8.52;4.30;;;;;;;7.06;100.00;102011.47;7390473;19;19918;-77
2023/12/19 03:57:09;;;;;;;6.32;4.00;;;;;;;7.04;100.00;102008.06;7389434;19;19918;-77
2023/12/19 03:59:37;;;;;;;6.65;3.83;;;;;;;7.03;100.00;102006.34;7389689;19;19918;-77
2023/12/19 04:02:09;;;;;;;6.85;3.90;;;;;;;7.02;100.00;102003.81;7392516;19;19926;-77
2023/12/19 04:04:37;;;;;;;6.43;4.32;;;;;;;7.01;100.00;102011.00;7390499;19;19927;-77
2023/12/19 04:07:06;;;;;;;7.93;4.20;;;;;;;6.98;100.00;101999.69;7389599;19;19919;-77
2023/12/19 04:09:35;;;;;;;7.82;4.20;;;;;;;6.98;100.00;101994.31;7391461;19;20491;-77
2023/12/19 04:12:06;;;;;;;7.38;3.80;;;;;;;6.96;100.00;101981.03;7392366;19;19982;-77
2023/12/19 04:14:35;;;;;;;5.80;3.42;;;;;;;6.97;100.00;101974.72;7391156;19;20271;-77
2023/12/19 04:17:04;;;;;;;5.85;3.85;;;;;;;6.95;100.00;101973.97;7389752;19;20044;-77
2023/12/19 04:19:55;;;;;;;6.25;3.60;;;;;;;6.94;100.00;101974.97;7388698;19;19929;-77
2023/12/19 04:22:25;;;;;;;6.25;3.65;;;;;;;6.95;100.00;101963.25;7386398;19;19947;-77
2023/12/19 04:24:54;;;;;;;6.80;3.42;;;;;;;6.95;100.00;101973.13;7395548;19;20303;-77
2023/12/19 04:27:23;;;;;;;5.95;3.60;;;;;;;6.95;100.00;101970.44;7389482;19;19918;-77
2023/12/19 04:29:54;;;;;;;5.57;3.45;;;;;;;6.93;100.00;101967.06;7391018;19;19947;-77
2023/12/19 04:32:23;;;;;;;5.40;3.80;;;;;;;6.93;100.00;101970.59;7389486;19;19998;-77
2023/12/19 04:34:54;;;;;;;6.78;3.83;;;;;;;6.94;100.00;101974.13;7390450;19;20193;-77
2023/12/19 04:37:23;;;;;;;6.60;3.55;;;;;;;6.92;100.00;101976.94;7387643;19;19939;-77
2023/12/19 04:39:51;;;;;;;5.68;3.47;;;;;;;6.92;100.00;101963.53;7390679;19;19914;-77
2023/12/19 04:42:40;;;;;;;5.55;3.58;;;;;;;6.93;100.00;101965.25;7389738;19;19929;-77
2023/12/19 04:45:09;;;;;;;5.82;3.30;;;;;;;6.92;100.00;101962.69;7390597;19;20788;-77
2023/12/19 04:47:39;;;;;;;5.38;3.50;;;;;;;6.92;100.00;101957.31;7391376;19;19986;-77
2023/12/19 04:50:11;;;;;;;5.72;3.72;;;;;;;6.91;100.00;101961.81;7396366;19;20341;-77
2023/12/19 04:52:40;;;;;;;4.95;3.50;;;;;;;6.92;100.00;101962.69;7398056;19;20357;-77
2023/12/19 04:55:09;;;;;;;4.30;2.97;;;;;;;6.90;100.00;101957.47;7388096;19;19923;-78
2023/12/19 04:57:57;;;;;;;;;;;;;;;6.84;100.00;101963.31;7391138;19;19922;-77
2023/12/19 05:00:26;;;;;;;6.53;3.65;;;;;;;6.88;100.00;101954.03;7391126;19;20279;-77
2023/12/19 05:02:55;;;;;;;5.13;3.30;;;;;;;6.89;100.00;101942.38;7389328;19;19923;-77
2023/12/19 05:05:46;;;;;;;5.88;3.55;;;;;;;6.89;100.00;101937.00;7387038;19;19919;-77
2023/12/19 05:08:15;;;;;;;5.75;3.47;;;;;;;6.90;100.00;101943.22;7389530;19;19923;-78
2023/12/19 05:10:43;;;;;;;6.05;3.15;;;;;;;6.90;100.00;101927.16;7387378;19;19922;-77
2023/12/19 05:13:13;;;;;;;5.07;3.00;;;;;;;6.90;100.00;101924.47;7386983;19;19918;-77
2023/12/19 05:15:42;;;;;;;5.97;2.85;;;;;;;6.90;100.00;101941.41;7390421;19;20561;-77
2023/12/19 05:18:10;;;;;;;5.55;2.78;;;;;;;6.89;100.00;101937.00;7389606;19;19950;-77
2023/12/19 05:20:39;;;;;;;4.88;3.08;;;;;;;6.90;100.00;101919.97;7386947;19;20348;-77
2023/12/19 05:23:10;;;;;;;4.82;3.08;;;;;;;6.91;100.00;101915.44;7386773;19;19951;-77
2023/12/19 05:25:59;;;;;;;4.63;2.88;;;;;;;6.89;100.00;101907.53;7387627;19;19927;-77
2023/12/19 05:28:27;;;;;;;6.65;3.22;;;;;;;6.90;100.00;101913.75;7390466;19;19958;-77
2023/12/19 05:30:56;;;;;;;5.07;3.17;;;;;;;6.89;100.00;101920.94;7390008;19;19919;-77
2023/12/19 05:33:44;;;;;;;4.82;3.28;;;;;;;6.88;100.00;101915.69;7394467;19;19922;-77
2023/12/19 05:36:14;;;;;;;4.13;2.70;;;;;;;6.88;100.00;101926.41;7397083;19;19930;-77
2023/12/19 05:38:46;;;;;;;4.95;2.50;;;;;;;6.88;100.00;101929.09;7394335;19;20395;-77
2023/12/19 05:41:16;;;;;;;3.75;2.53;;;;;;;6.88;100.00;101929.94;7394779;19;19947;-75
2023/12/19 05:43:45;;;;;;;4.68;2.53;;;;;;;6.87;100.00;101925.56;7393037;19;19943;-75
2023/12/19 05:46:14;;;;;;;4.80;2.55;;;;;;;6.88;100.00;101932.63;7394195;19;19927;-75
2023/12/19 05:48:43;;;;;;;3.97;2.75;;;;;;;6.88;100.00;101921.91;7393731;19;19922;-75
2023/12/19 05:51:12;;;;;;;4.65;2.80;;;;;;;6.90;100.00;101927.16;7392253;19;20289;-75
2023/12/19 05:53:41;;;;;;;4.85;2.50;;;;;;;6.92;100.00;101927.84;7394021;19;19921;-75
2023/12/19 05:56:14;;;;;;;4.50;2.90;;;;;;;6.93;100.00;101937.59;7392396;19;19926;-75
2023/12/19 05:58:46;;;;;;;9.85;3.08;;;;;;;6.91;100.00;101924.31;7393554;19;20253;-75
2023/12/19 06:01:15;;;;;;;5.25;2.63;;;;;;;6.94;100.00;101915.19;7393719;19;19975;-75
2023/12/19 06:03:44;;;;;;;3.63;2.50;;;;;;;6.92;100.00;101915.31;7393011;19;20190;-75
2023/12/19 06:06:33;;;;;;;3.60;1.98;;;;;;;6.91;100.00;101912.75;7391729;19;19926;-75
2023/12/19 06:09:02;;;;;;;4.38;2.55;;;;;;;6.92;100.00;101899.25;7394334;19;19925;-77
2023/12/19 06:11:33;;;;;;;4.28;2.58;;;;;;;6.93;100.00;101908.97;7393549;19;19926;-75
2023/12/19 06:14:03;;;;;;;6.10;2.10;;;;;;;6.91;100.00;101905.56;7392172;19;19921;-75
2023/12/19 06:16:31;;;;;;;8.80;4.88;;;;;;;6.92;100.00;101901.91;7390034;19;20246;-75
2023/12/19 06:19:00;;;;;;;4.05;2.10;;;;;;;6.92;100.00;101882.31;7392118;19;19964;-75
2023/12/19 06:21:29;;;;;;;3.28;1.85;;;;;;;6.94;100.00;101880.38;7393248;19;20542;-75
2023/12/19 06:23:57;;;;;;;3.78;2.20;;;;;;;6.94;100.00;101865.16;7391237;19;20270;-75
2023/12/19 06:26:26;;;;;;;3.13;2.05;;;;;;;6.95;100.00;101872.19;7394922;19;19918;-75
2023/12/19 06:28:57;;;;;;;3.63;2.38;;;;;;;6.95;100.00;101882.03;7389732;19;19926;-75
2023/12/19 06:31:26;;;;;;;4.18;2.47;;;;;;;6.96;100.00;101865.00;7391451;19;20387;-75
2023/12/19 06:33:54;;;;;;;5.72;2.28;;;;;;;6.96;100.00;101865.84;7395009;19;19951;-77
2023/12/19 06:36:31;;;;;;;2.92;1.80;;;;;;;6.96;100.00;101865.84;7393963;19;20301;-77
2023/12/19 06:39:00;;;;;;;3.35;2.10;;;;;;;6.97;100.00;101864.88;7394163;19;19935;-77
2023/12/19 06:41:28;;;;;;;3.38;2.00;;;;;;;6.99;100.00;101857.56;7390422;19;20537;-77
2023/12/19 06:43:59;;;;;;;3.95;2.20;;;;;;;7.00;100.00;101858.41;7401587;19;19950;-76
2023/12/19 06:46:28;;;;;;;3.65;2.28;;;;;;;6.99;100.00;101857.56;7393247;19;20309;-76
2023/12/19 06:48:57;;;;;;;3.78;2.30;;;;;;;7.00;100.00;101851.22;7394744;19;19915;-76
2023/12/19 06:51:45;;;;;;;3.85;2.45;;;;;;;6.97;100.00;101835.41;7392834;19;19933;-77
2023/12/19 06:54:14;;;;;;;2.72;2.13;;;;;;;6.97;100.00;101843.47;7393700;19;20906;-76
2023/12/19 06:56:43;;;;;;;2.97;2.30;;;;;;;6.96;100.00;101836.38;7390588;19;19930;-76
2023/12/19 06:59:14;;;;;;;3.83;2.45;;;;;;;6.95;100.00;101834.69;7391607;19;19923;-76
2023/12/19 07:01:44;;;;;;;3.55;2.05;;;;;;;6.96;100.00;101831.03;7391624;19;19951;-76
2023/12/19 07:04:12;;;;;;;3.63;1.90;;;;;;;6.95;100.00;101842.72;7392876;19;20192;-76
2023/12/19 07:06:41;;;;;;;3.33;2.50;;;;;;;6.94;100.00;101833.00;7395933;19;19927;-76
2023/12/19 07:09:10;;;;;;;4.45;2.30;;;;;;;6.96;100.00;101824.81;7395532;19;19918;-76
2023/12/19 07:11:42;;;;;;;3.40;1.77;;;;;;;6.96;100.00;101820.31;7394097;19;19982;-76
2023/12/19 07:14:14;;;;;;;4.05;2.25;;;;;;;6.96;100.00;101820.31;7391085;19;19922;-76
2023/12/19 07:16:42;;;;;;;4.68;2.50;;;;;;;6.98;100.00;101820.19;7387204;19;20033;-76
2023/12/19 07:19:11;;;;;;;3.70;2.08;;;;;;;6.99;100.00;101817.38;7389468;19;19922;-76
2023/12/19 07:21:40;;;;;;;4.32;2.33;;;;;;;6.98;100.00;101814.84;7394027;19;19918;-76
2023/12/19 07:24:09;;;;;;;3.67;2.25;;;;;;;6.98;100.00;101815.69;7390576;19;20023;-76
2023/12/19 07:26:38;;;;;;;2.63;1.55;;;;;;;6.98;100.00;101813.00;7393595;19;19926;-76
2023/12/19 07:29:08;;;;;;;3.30;2.28;;;;;;;7.00;100.00;101807.50;7391405;19;19926;-76
2023/12/19 07:31:39;;;;;;;3.78;2.03;;;;;;;7.00;100.00;101800.31;7393155;19;19926;-75
2023/12/19 07:34:08;;;;;;;3.38;2.08;;;;;;;7.01;100.00;101793.13;7390974;19;19937;-76
2023/12/19 07:36:37;;;;;;;4.65;2.17;;;;;;;7.02;100.00;101801.06;7391321;19;19923;-76
2023/12/19 07:39:06;;;;;;;3.15;2.08;;;;;;;7.03;100.00;101797.38;7391194;19;19922;-76
2023/12/19 07:41:35;;;;;;;2.63;2.03;;;;;;;7.03;100.00;101794.69;7392486;19;22072;-76
2023/12/19 07:44:09;;;;;;;3.30;2.03;;;;;;;7.04;100.00;101801.75;7393303;19;20288;-76
2023/12/19 07:46:42;;;;;;;4.22;2.38;;;;;;;7.05;100.00;101806.13;7390505;19;19919;-76
2023/12/19 07:49:11;;;;;;;3.42;2.20;;;;;;;7.06;100.00;101805.16;7392367;19;19918;-76
2023/12/19 07:51:39;;;;;;;4.47;2.35;;;;;;;7.06;100.00;101797.13;7394230;19;20041;-76
2023/12/19 07:54:28;;;;;;;3.63;2.15;;;;;;;7.08;100.00;101795.16;7389478;19;19928;-76
2023/12/19 07:56:58;;;;;;;3.85;1.95;;;;;;;7.08;100.00;101800.50;7392546;19;19979;-76
2023/12/19 07:59:27;;;;;;;4.32;2.35;;;;;;;7.10;100.00;101792.34;7392055;19;19978;-75
2023/12/19 08:01:58;;;;;;;4.43;2.22;;;;;;;7.12;100.00;101790.41;7393427;19;19926;-75
2023/12/19 08:04:47;;;;;;;4.75;2.53;;;;;;;7.12;100.00;101777.81;7390409;19;19929;-76
2023/12/19 08:07:15;;;;;;;3.13;2.38;;;;;;;7.13;100.00;101779.53;7393172;19;19922;-75
2023/12/19 08:09:47;;;;;;;3.38;2.20;;;;;;;7.15;100.00;101784.78;7394084;19;19947;-77
2023/12/19 08:12:17;;;;;;;4.20;2.60;;;;;;;7.16;100.00;101789.97;7391045;19;19926;-75
2023/12/19 08:14:47;;;;;;;4.90;3.13;;;;;;;7.17;100.00;101793.50;7392057;19;20272;-77
2023/12/19 08:17:18;;;;;;;4.07;2.38;;;;;;;7.18;100.00;101801.44;7393001;19;20387;-77
2023/12/19 08:19:47;;;;;;;4.00;2.30;;;;;;;7.19;100.00;101800.47;7392441;19;19926;-76
2023/12/19 08:22:15;;;;;;;3.92;2.17;;;;;;;7.20;100.00;101799.47;7392670;19;19955;-77
2023/12/19 08:24:44;;;;;;;3.75;2.35;;;;;;;7.20;100.00;101799.47;7390883;19;19922;-76
2023/12/19 08:27:13;;;;;;;3.30;2.13;;;;;;;7.21;100.00;101787.75;7389957;19;19931;-76
2023/12/19 08:29:41;;;;;;;4.03;2.35;;;;;;;7.22;100.00;101784.09;7391761;19;20010;-76
2023/12/19 08:32:10;;;;;;;3.35;2.20;;;;;;;7.24;100.00;101792.88;7390796;19;19919;-76
2023/12/19 08:34:43;;;;;;;3.88;2.50;;;;;;;7.25;100.00;101799.91;7392047;19;19952;-75
2023/12/19 08:37:12;;;;;;;4.22;3.13;;;;;;;7.27;100.00;101802.47;7390617;19;20246;-76
2023/12/19 08:39:41;;;;;;;3.70;2.40;;;;;;;7.28;100.00;101791.63;7392239;19;19933;-76
2023/12/19 08:42:10;;;;;;;4.20;2.88;;;;;;;7.32;100.00;101796.72;7390259;19;20345;-76
2023/12/19 08:44:58;;;;;;;5.00;2.85;;;;;;;7.32;100.00;101794.88;7388864;19;20393;-76
2023/12/19 08:47:29;;;;;;;5.57;3.45;;;;;;;7.35;100.00;101793.75;7390241;19;19994;-76
2023/12/19 08:50:01;;;;;;;5.63;3.40;;;;;;;7.37;100.00;101781.06;7391568;19;19946;-76
2023/12/19 08:52:30;;;;;;;4.05;2.35;;;;;;;7.39;100.00;101773.72;7387701;19;19918;-76
2023/12/19 08:54:59;;;;;;;3.55;2.30;;;;;;;7.42;100.00;101784.22;7391183;19;19919;-75
2023/12/19 08:57:28;;;;;;;4.28;2.83;;;;;;;7.43;100.00;101773.34;7390000;19;19918;-76
2023/12/19 08:59:57;;;;;;;3.92;2.58;;;;;;;7.46;100.00;101774.91;7393627;19;19922;-78
2023/12/19 09:02:26;;;;;;;4.85;2.97;;;;;;;7.47;100.00;101772.06;7392882;19;19926;-76
2023/12/19 09:04:54;;;;;;;4.10;2.28;;;;;;;7.50;100.00;101781.69;7382844;19;19919;-76
2023/12/19 09:07:27;;;;;;;4.05;2.80;;;;;;;7.51;100.00;101762.78;7396426;19;19922;-76
2023/12/19 09:09:57;;;;;;;3.83;2.10;;;;;;;7.53;100.00;101757.28;7392726;19;19926;-76
2023/12/19 09:12:28;;;;;;;3.30;2.17;;;;;;;7.52;100.00;101755.59;7397267;19;20354;-78
2023/12/19 09:15:00;;;;;;;3.67;2.75;;;;;;;7.53;100.00;101751.94;7396278;19;19958;-76
2023/12/19 09:17:31;;;;;;;4.53;2.55;;;;;;;7.54;100.00;101759.84;7393935;19;19950;-76
2023/12/19 09:20:04;;;;;;;3.85;2.15;;;;;;;7.58;100.00;101755.06;7394960;19;19929;-78
2023/12/19 09:22:37;;;;;;;4.32;2.42;;;;;;;7.61;100.00;101746.72;7397798;19;20651;-78
2023/12/19 09:25:13;;;;;;;4.97;2.20;;;;;;;7.62;100.00;101743.06;7397918;19;19922;-75
2023/12/19 09:27:44;;;;;;;5.00;2.17;;;;;;;7.63;100.00;101742.09;7397092;19;20473;-78
2023/12/19 09:30:14;;;;;;;5.70;2.80;;;;;;;7.65;100.00;101740.09;7396325;19;19922;-78
2023/12/19 09:32:44;;;;;;;7.80;3.95;;;;;;;7.66;100.00;101742.66;7394633;19;19922;-77
2023/12/19 09:35:13;;;;;;;4.50;2.10;;;;;;;7.70;100.00;101740.56;7391771;19;20670;-77
2023/12/19 09:37:46;;;;;;;4.28;2.08;;;;;;;7.72;100.00;101746.63;7391318;19;19990;-77
2023/12/19 09:40:18;;;;;;;3.63;2.25;;;;;;;7.74;100.00;101742.81;7390822;19;20476;-77
2023/12/19 09:42:47;;;;;;;3.78;2.35;;;;;;;7.78;100.00;101745.22;7394992;19;20012;-78
2023/12/19 09:45:16;;;;;;;3.53;2.25;;;;;;;7.79;100.00;101739.72;7393890;19;19946;-75
2023/12/19 09:47:55;;;;;;;3.55;2.20;;;;;;;7.80;100.00;101733.38;7394505;19;19959;-77
2023/12/19 09:50:26;;;;;;;3.72;2.00;;;;;;;7.82;100.00;101730.53;7395413;19;19918;-77
2023/12/19 09:53:19;;;;;;;3.50;2.10;;;;;;;7.85;100.00;101735.66;7393584;19;20416;-77
2023/12/19 09:55:48;;;;;;;3.65;2.25;;;;;;;7.86;100.00;101735.50;7391081;19;20299;-77
2023/12/19 09:58:18;;;;;;;3.17;1.88;;;;;;;7.88;100.00;101732.69;7393839;19;19930;-75
2023/12/19 10:00:48;;;;;;;4.13;2.38;;;;;;;7.89;100.00;101737.06;7396171;19;19930;-77
2023/12/19 10:03:17;;;;;;;3.70;2.13;;;;;;;7.91;100.00;101741.31;7393145;19;19923;-77
2023/12/19 10:05:47;;;;;;;3.22;2.28;;;;;;;7.93;100.00;101728.63;7395733;19;20363;-77
2023/12/19 10:08:21;;;;;;;4.22;2.47;;;;;;;7.94;100.00;101700.78;7399974;19;19918;-77
2023/12/19 10:10:54;;;;;;;3.95;2.30;;;;;;;7.96;100.00;101696.13;7395912;19;20334;-77
2023/12/19 10:13:30;;;;;;;4.60;2.35;;;;;;;7.98;100.00;101694.13;7394926;19;20445;-77
2023/12/19 10:16:20;;;;;;;4.53;2.30;;;;;;;7.99;100.00;101677.06;7391560;19;19922;-77
2023/12/19 10:18:56;;;;;;;3.30;2.20;;;;;;;8.01;100.00;101685.81;7395525;19;20286;-77
2023/12/19 10:21:28;;;;;;;4.43;2.60;;;;;;;8.04;100.00;101680.16;7394835;19;19923;-77
2023/12/19 10:24:08;;;;;;;3.53;2.80;;;;;;;8.05;100.00;101679.19;7395795;19;19918;-77
2023/12/19 10:26:37;;;;;;;3.92;2.60;;;;;;;8.07;100.00;101674.50;7392546;19;20183;-77
2023/12/19 10:29:05;;;;;;;3.63;2.10;;;;;;;8.09;100.00;101688.66;7390158;19;20349;-77
2023/12/19 10:31:34;;;;;;;2.70;1.80;;;;;;;8.11;100.00;101673.25;7395576;19;20312;-77
2023/12/19 10:34:06;;;;;;;3.80;2.58;;;;;;;8.15;100.00;101679.19;7394457;19;19953;-77
2023/12/19 10:36:36;;;;;;;5.03;1.92;;;;;;;8.17;100.00;101685.25;7393460;19;20307;-77
2023/12/19 10:39:07;;;;;;;3.45;1.73;;;;;;;8.19;100.00;101675.25;7395237;19;19922;-77
2023/12/19 10:41:38;;;;;;;5.63;2.17;;;;;;;8.21;100.00;101666.03;7393228;19;20369;-77
2023/12/19 10:44:07;;;;;;;2.65;1.52;;;;;;;8.23;100.00;101678.47;7391810;19;19926;-77
2023/12/19 10:46:37;;;;;;;2.80;1.70;;;;;;;8.24;100.00;101669.44;7388300;19;20269;-76
2023/12/19 10:49:07;;;;;;;2.42;1.73;;;;;;;8.24;100.00;101664.91;7387081;19;19926;-77
2023/12/19 10:51:36;;;;;;;3.00;1.85;;;;;;;8.27;100.00;101661.09;7393194;19;19929;-76
2023/12/19 10:54:13;;;;;;;3.60;1.90;;;;;;;8.28;100.00;101670.84;7393716;19;19926;-76
2023/12/19 10:56:52;;;;;;;4.25;2.17;;;;;;;8.27;100.00;101661.09;7394263;19;19930;-77
2023/12/19 10:59:29;;;;;;;2.88;1.88;;;;;;;8.31;100.00;101659.84;7392573;19;19922;-76
2023/12/19 11:02:05;;;;;;;2.60;1.98;;;;;;;8.32;100.00;101650.81;7391451;19;19950;-76
2023/12/19 11:04:38;;;;;;;3.00;2.20;;;;;;;8.33;100.00;101655.16;7393580;19;19923;-77
2023/12/19 11:07:13;;;;;;;3.13;2.22;;;;;;;8.34;100.00;101632.72;7390694;19;19924;-78
2023/12/19 11:09:49;;;;;;;3.40;2.08;;;;;;;8.36;100.00;101630.75;7392982;19;20548;-79
2023/12/19 11:12:18;;;;;;;3.13;1.83;;;;;;;8.35;100.00;101635.25;7393728;19;19939;-79
2023/12/19 11:14:46;;;;;;;3.22;2.22;;;;;;;8.36;100.00;101611.94;7396762;19;19931;-78
2023/12/19 11:17:21;;;;;;;3.13;1.98;;;;;;;8.37;100.00;101602.91;7395374;19;19929;-78
2023/12/19 11:19:54;;;;;;;3.42;2.47;;;;;;;8.38;100.00;101605.44;7393232;19;20290;-78
2023/12/19 11:22:51;;;;;;;2.70;1.90;;;;;;;8.41;100.00;101612.38;7391122;19;19923;-78
2023/12/19 11:25:27;;;;;;;4.57;2.35;;;;;;;8.42;100.00;101614.03;7393804;19;19939;-78
2023/12/19 11:27:57;;;;;;;4.20;2.50;;;;;;;8.43;100.00;101602.31;7390949;19;19922;-77
2023/12/19 11:30:40;;;;;;;3.75;2.45;;;;;;;8.43;100.00;101594.25;7393067;19;20340;-77
2023/12/19 11:33:11;;;;;;;5.18;2.88;;;;;;;8.45;100.00;101585.09;7393986;19;19926;-78
2023/12/19 11:35:40;;;;;;;3.88;2.47;;;;;;;8.45;100.00;101581.56;7390639;19;19918;-77
2023/12/19 11:38:25;;;;;;;5.68;2.80;;;;;;;8.43;100.00;101591.56;7392884;19;19930;-78
2023/12/19 11:41:01;;;;;;;4.25;2.20;;;;;;;8.44;100.00;101582.53;7395748;19;19929;-77